Ohshima Kazumaru — JD2908 — position and weather

sailwx.info

Track history (hours):
 
Tides and Currents Weather Stations Pressure Air Temp Water Temp Dewpoint Dewpoint Depression Visibility Wind Speed Wind Dir Waves Ship Positions

Ohshima Kazumaru

Last reported at 2014-Jul-31 11:07 UTC. Time now 2014-Aug-01 05:49 UTC.
Position N 34°08' E 134°46'.

Length 69 m; draft 3.5 m.

Type: Cargo ship. MMSI: 431000925.

Date/timePositionNaut miles runAvg speedWind from/ knotsBaromVisibWave heightAir tempDewpointWater temp
2014-Jul-31 11:07N 34°08' E 134°46'22210.7
2014-Jul-30 14:23N 34°48' E 139°11'1212.7
2014-Jul-30 13:27N 34°57' E 139°20'1112.0
2014-Jul-30 12:33N 35°03' E 139°31'1212.2
2014-Jul-30 11:33N 35°09' E 139°43'1111.0
2014-Jul-30 10:33N 35°20' E 139°43'1111.4
2014-Jul-30 09:33N 35°31' E 139°49'2 1.6
2014-Jul-30 08:33N 35°32' E 139°47'0 0.0
2014-Jul-30 07:33N 35°32' E 139°47'0 0.0
2014-Jul-30 06:33N 35°32' E 139°47'0 0.0
2014-Jul-30 05:33N 35°32' E 139°47'0 0.0
2014-Jul-30 04:33N 35°32' E 139°47'0 0.0
2014-Jul-30 03:33N 35°32' E 139°47'0 0.0
2014-Jul-30 02:33N 35°32' E 139°47'0 0.0
2014-Jul-30 01:33N 35°32' E 139°47'0 0.0
2014-Jul-30 00:33N 35°32' E 139°47'0 0.0
2014-Jul-29 23:33N 35°32' E 139°47'0 0.0
2014-Jul-29 22:33N 35°32' E 139°47'2 1.8
2014-Jul-29 21:26N 35°31' E 139°49'0 0.0
2014-Jul-29 20:32N 35°31' E 139°49'0 0.0
2014-Jul-29 19:26N 35°31' E 139°49'1 1.0
2014-Jul-29 18:33N 35°30' E 139°49'1212.5
2014-Jul-29 17:33N 35°18' E 139°45'1111.3
2014-Jul-29 16:33N 35°07' E 139°44'1212.1
2014-Jul-29 15:33N 34°59' E 139°33'1412.7
2014-Jul-29 14:29N 34°51' E 139°20'  
2014-Jul-25 07:32N 33°56' E 134°58'21411.1
2014-Jul-24 12:22N 34°49' E 139°09'2212.0
2014-Jul-24 10:33N 35°02' E 139°31'1212.3
2014-Jul-24 09:33N 35°09' E 139°43'1111.0
2014-Jul-24 08:33N 35°20' E 139°43'1211.9
2014-Jul-24 07:33N 35°31' E 139°48'1 0.9
2014-Jul-24 06:33N 35°32' E 139°47'0 0.0
2014-Jul-24 05:34N 35°32' E 139°47'0 0.0
2014-Jul-24 04:34N 35°32' E 139°47'0 0.0
2014-Jul-24 03:33N 35°32' E 139°47'0 0.0
2014-Jul-24 02:31N 35°32' E 139°47'0 0.0
2014-Jul-24 01:33N 35°32' E 139°47'0 0.0
2014-Jul-24 00:33N 35°32' E 139°47'0 0.0
2014-Jul-23 23:33N 35°32' E 139°47'0 0.0
2014-Jul-23 22:33N 35°32' E 139°47'2 2.0
2014-Jul-23 21:33N 35°31' E 139°49'0 0.3
2014-Jul-23 20:34N 35°30' E 139°50'0 0.1
2014-Jul-23 19:33N 35°30' E 139°50'0 0.1
2014-Jul-23 18:33N 35°30' E 139°50'0 0.0
2014-Jul-23 17:33N 35°30' E 139°50'0 0.0
2014-Jul-23 16:34N 35°30' E 139°50'0 0.0
2014-Jul-23 15:33N 35°30' E 139°50'0 0.0
2014-Jul-23 14:33N 35°30' E 139°50'0 0.1
2014-Jul-23 13:33N 35°30' E 139°50'0 0.0
2014-Jul-23 12:33N 35°30' E 139°50'0 0.1
2014-Jul-23 11:34N 35°30' E 139°50'0 0.0
2014-Jul-23 10:33N 35°30' E 139°50'0 0.0
2014-Jul-23 09:33N 35°30' E 139°50'9 8.9
2014-Jul-23 08:33N 35°36' E 139°58'4 4.5
2014-Jul-23 07:33N 35°41' E 139°58'0 0.0
2014-Jul-23 06:33N 35°41' E 139°58'0 0.0
2014-Jul-23 05:33N 35°41' E 139°58'0 0.0
2014-Jul-23 04:33N 35°41' E 139°58'0 0.0
2014-Jul-23 03:33N 35°41' E 139°58'0 0.0
2014-Jul-23 02:33N 35°41' E 139°58'0 0.0
2014-Jul-23 01:33N 35°41' E 139°58'0 0.0
2014-Jul-23 00:33N 35°41' E 139°58'0 0.0
2014-Jul-22 23:33N 35°41' E 139°58'0 0.0
2014-Jul-22 22:33N 35°41' E 139°58'2 1.9
2014-Jul-22 21:33N 35°39' E 139°59'2 2.5
2014-Jul-22 20:33N 35°37' E 139°58'0 0.1
2014-Jul-22 19:33N 35°37' E 139°58'0 0.0
2014-Jul-22 18:33N 35°37' E 139°58'0 0.0
2014-Jul-22 17:33N 35°37' E 139°58'0 0.1
2014-Jul-22 16:33N 35°37' E 139°58'1010.1
2014-Jul-22 15:33N 35°28' E 139°51'1211.8
2014-Jul-22 14:33N 35°17' E 139°45'1212.0
2014-Jul-22 13:33N 35°05' E 139°44'1313.5
2014-Jul-22 12:33N 34°56' E 139°32'  
Track history (hours):
 
Tides and Currents Weather Stations Pressure Air Temp Water Temp Dewpoint Dewpoint Depression Visibility Wind Speed Wind Dir Waves Ship Positions

Ohshima Kazumaru

Last reported at 2014-Jul-31 11:07 UTC. Time now 2014-Aug-01 05:49 UTC.
Position N 34°08' E 134°46'.

Length 69 m; draft 3.5 m.

Type: Cargo ship. MMSI: 431000925.

Date/timePositionNaut miles runAvg speedWind from/ knotsBaromVisibWave heightAir tempDewpointWater temp
2014-Jul-31 11:07N 34°08' E 134°46'22210.7
2014-Jul-30 14:23N 34°48' E 139°11'1212.7
2014-Jul-30 13:27N 34°57' E 139°20'1112.0
2014-Jul-30 12:33N 35°03' E 139°31'1212.2
2014-Jul-30 11:33N 35°09' E 139°43'1111.0
2014-Jul-30 10:33N 35°20' E 139°43'1111.4
2014-Jul-30 09:33N 35°31' E 139°49'2 1.6
2014-Jul-30 08:33N 35°32' E 139°47'0 0.0
2014-Jul-30 07:33N 35°32' E 139°47'0 0.0
2014-Jul-30 06:33N 35°32' E 139°47'0 0.0
2014-Jul-30 05:33N 35°32' E 139°47'0 0.0
2014-Jul-30 04:33N 35°32' E 139°47'0 0.0
2014-Jul-30 03:33N 35°32' E 139°47'0 0.0
2014-Jul-30 02:33N 35°32' E 139°47'0 0.0
2014-Jul-30 01:33N 35°32' E 139°47'0 0.0
2014-Jul-30 00:33N 35°32' E 139°47'0 0.0
2014-Jul-29 23:33N 35°32' E 139°47'0 0.0
2014-Jul-29 22:33N 35°32' E 139°47'2 1.8
2014-Jul-29 21:26N 35°31' E 139°49'0 0.0
2014-Jul-29 20:32N 35°31' E 139°49'0 0.0
2014-Jul-29 19:26N 35°31' E 139°49'1 1.0
2014-Jul-29 18:33N 35°30' E 139°49'1212.5
2014-Jul-29 17:33N 35°18' E 139°45'1111.3
2014-Jul-29 16:33N 35°07' E 139°44'1212.1
2014-Jul-29 15:33N 34°59' E 139°33'1412.7
2014-Jul-29 14:29N 34°51' E 139°20'  
2014-Jul-25 07:32N 33°56' E 134°58'21411.1
2014-Jul-24 12:22N 34°49' E 139°09'2212.0
2014-Jul-24 10:33N 35°02' E 139°31'1212.3
2014-Jul-24 09:33N 35°09' E 139°43'1111.0
2014-Jul-24 08:33N 35°20' E 139°43'1211.9
2014-Jul-24 07:33N 35°31' E 139°48'1 0.9
2014-Jul-24 06:33N 35°32' E 139°47'0 0.0
2014-Jul-24 05:34N 35°32' E 139°47'0 0.0
2014-Jul-24 04:34N 35°32' E 139°47'0 0.0
2014-Jul-24 03:33N 35°32' E 139°47'0 0.0
2014-Jul-24 02:31N 35°32' E 139°47'0 0.0
2014-Jul-24 01:33N 35°32' E 139°47'0 0.0
2014-Jul-24 00:33N 35°32' E 139°47'0 0.0
2014-Jul-23 23:33N 35°32' E 139°47'0 0.0
2014-Jul-23 22:33N 35°32' E 139°47'2 2.0
2014-Jul-23 21:33N 35°31' E 139°49'0 0.3
2014-Jul-23 20:34N 35°30' E 139°50'0 0.1
2014-Jul-23 19:33N 35°30' E 139°50'0 0.1
2014-Jul-23 18:33N 35°30' E 139°50'0 0.0
2014-Jul-23 17:33N 35°30' E 139°50'0 0.0
2014-Jul-23 16:34N 35°30' E 139°50'0 0.0
2014-Jul-23 15:33N 35°30' E 139°50'0 0.0
2014-Jul-23 14:33N 35°30' E 139°50'0 0.1
2014-Jul-23 13:33N 35°30' E 139°50'0 0.0
2014-Jul-23 12:33N 35°30' E 139°50'0 0.1
2014-Jul-23 11:34N 35°30' E 139°50'0 0.0
2014-Jul-23 10:33N 35°30' E 139°50'0 0.0
2014-Jul-23 09:33N 35°30' E 139°50'9 8.9
2014-Jul-23 08:33N 35°36' E 139°58'4 4.5
2014-Jul-23 07:33N 35°41' E 139°58'0 0.0
2014-Jul-23 06:33N 35°41' E 139°58'0 0.0
2014-Jul-23 05:33N 35°41' E 139°58'0 0.0
2014-Jul-23 04:33N 35°41' E 139°58'0 0.0
2014-Jul-23 03:33N 35°41' E 139°58'0 0.0
2014-Jul-23 02:33N 35°41' E 139°58'0 0.0
2014-Jul-23 01:33N 35°41' E 139°58'0 0.0
2014-Jul-23 00:33N 35°41' E 139°58'0 0.0
2014-Jul-22 23:33N 35°41' E 139°58'0 0.0
2014-Jul-22 22:33N 35°41' E 139°58'2 1.9
2014-Jul-22 21:33N 35°39' E 139°59'2 2.5
2014-Jul-22 20:33N 35°37' E 139°58'0 0.1
2014-Jul-22 19:33N 35°37' E 139°58'0 0.0
2014-Jul-22 18:33N 35°37' E 139°58'0 0.0
2014-Jul-22 17:33N 35°37' E 139°58'0 0.1
2014-Jul-22 16:33N 35°37' E 139°58'1010.1
2014-Jul-22 15:33N 35°28' E 139°51'1211.8
2014-Jul-22 14:33N 35°17' E 139°45'1212.0
2014-Jul-22 13:33N 35°05' E 139°44'1313.5
2014-Jul-22 12:33N 34°56' E 139°32'  

Dump ship's entire track history